Decoded Metar for KRCX (LADYSMITH/RUSK in WI, USA) (IATA:RCX) | Meteo·Mobile Aviation Weather
aviador You're here:

KRCX Decoded Metar

LADYSMITH/RUSK in WI, USA
Report Time2019-06-18 14:35:00
UTC Time2019-06-18 14:39:30
Flight Rules vfr VFR
Wind280° at 04 kt
W.Decomp.*RWY 32: 3.1 kt HW 2.6 kt LCW
RWY 19: 4.0 kt RCW
Visibility9999 m
Phenomena:N/A
Clouds:N/A
Expected CloudBase > 2,800 ft AGL from Temp-Dew spread
CeilingNone
Temp19°C (ISA +6)
Dew Point12°C (64% RH)
AAT18.2°C
QNH1016 hPa
Density Alt2,083 ft
Elevation1,237 ft
Report Wrong Elevation
Raw Report
KRCX 181435Z AUTO 28004KT 10SM CLR 19/12 A2999 RMK AO2
T01850115=

Extra information for KRCX:More info

Metar Taf Metar & Taf Last 4 Metars F.Rules Stats Wind Profile Meteogram Temp Stats Airport Information Weather charts Add Link Nearby VenuesMetar ALERT Operation Metar Decoded Social comments

AIRNAV info for KRCX